createdAt,value
2022-11-16T00:00:29.585Z,45.11
2022-11-16T00:02:59.344Z,45.07
2022-11-16T00:05:28.644Z,45.06
2022-11-16T00:07:57.331Z,45.24
2022-11-16T00:10:27.147Z,45.20
2022-11-16T00:12:55.609Z,45.09
2022-11-16T00:15:24.163Z,45.23
2022-11-16T00:17:52.666Z,44.80
2022-11-16T00:20:21.137Z,45.20
2022-11-16T00:22:49.604Z,45.03
2022-11-16T00:25:18.129Z,44.83
2022-11-16T00:27:47.972Z,44.93
2022-11-16T00:30:17.347Z,45.08
2022-11-16T00:32:45.827Z,44.78
2022-11-16T00:35:14.312Z,44.78
2022-11-16T00:37:42.809Z,44.91
2022-11-16T00:40:13.642Z,44.71
2022-11-16T00:42:42.322Z,44.67
2022-11-16T00:45:12.692Z,44.54
2022-11-16T00:47:41.229Z,44.67
2022-11-16T00:50:10.472Z,44.72
2022-11-16T00:52:38.907Z,44.72
2022-11-16T00:55:08.771Z,44.93
2022-11-16T00:57:37.313Z,44.93
2022-11-16T01:00:06.505Z,44.88
2022-11-16T01:02:36.362Z,44.85
2022-11-16T01:05:05.219Z,44.85
2022-11-16T01:07:33.796Z,44.98
2022-11-16T01:10:02.353Z,44.63
2022-11-16T01:12:29.811Z,44.84
2022-11-16T01:14:58.268Z,44.68
2022-11-16T01:17:26.956Z,44.54
2022-11-16T01:19:56.846Z,44.82
2022-11-16T01:22:25.401Z,44.75
2022-11-16T01:24:53.871Z,44.75
2022-11-16T01:27:22.397Z,44.75
2022-11-16T01:29:50.850Z,44.88
2022-11-16T01:32:19.307Z,44.75
2022-11-16T01:34:47.828Z,44.65
2022-11-16T01:37:17.779Z,44.51
2022-11-16T01:39:46.345Z,44.76
2022-11-16T01:42:18.223Z,44.63
2022-11-16T01:45:06.985Z,44.84
2022-11-16T01:47:35.591Z,44.59
2022-11-16T01:50:10.241Z,44.58
2022-11-16T01:52:44.253Z,44.49
2022-11-16T01:55:13.059Z,44.58
2022-11-16T01:57:44.091Z,44.61
2022-11-16T02:00:14.501Z,44.51
2022-11-16T02:02:43.456Z,44.44
2022-11-16T02:05:12.680Z,44.41
2022-11-16T02:08:39.408Z,45.04
2022-11-16T02:11:30.622Z,44.53
2022-11-16T02:14:12.095Z,44.24
2022-11-16T02:16:46.910Z,44.23
2022-11-16T02:19:34.742Z,44.21
2022-11-16T02:22:08.582Z,44.46
2022-11-16T02:24:44.940Z,44.39
2022-11-16T02:27:48.856Z,44.66
2022-11-16T02:30:19.108Z,44.44
2022-11-16T02:32:51.064Z,44.46
2022-11-16T02:35:26.221Z,44.31
2022-11-16T02:37:56.606Z,44.46
2022-11-16T02:40:25.824Z,44.22
2022-11-16T02:42:58.077Z,44.40
2022-11-16T02:45:30.108Z,44.39
2022-11-16T02:48:06.377Z,43.97
2022-11-16T02:50:34.953Z,44.09
2022-11-16T02:53:03.840Z,44.36
2022-11-16T02:55:33.917Z,44.33
2022-11-16T02:58:02.909Z,44.04
2022-11-16T03:00:36.662Z,44.10
2022-11-16T03:03:13.185Z,44.27
2022-11-16T03:05:45.225Z,44.01
2022-11-16T03:08:21.887Z,44.25
2022-11-16T03:11:10.616Z,44.00
2022-11-16T03:13:39.205Z,44.20
2022-11-16T03:16:14.395Z,44.03
2022-11-16T03:18:42.863Z,44.26
2022-11-16T03:21:17.258Z,44.00
2022-11-16T03:23:46.632Z,44.08
2022-11-16T03:26:16.601Z,43.81
2022-11-16T03:28:51.421Z,44.19
2022-11-16T03:31:23.650Z,44.02
2022-11-16T03:33:56.113Z,44.13
2022-11-16T03:36:26.920Z,43.91
2022-11-16T03:38:55.449Z,43.95
2022-11-16T03:41:24.094Z,44.21
2022-11-16T03:43:52.576Z,44.09
2022-11-16T03:46:22.510Z,43.80
2022-11-16T03:48:56.779Z,43.85
2022-11-16T03:51:25.291Z,44.17
2022-11-16T03:53:53.812Z,43.96
2022-11-16T03:56:22.263Z,43.84
2022-11-16T03:58:51.222Z,43.76
2022-11-16T04:01:21.177Z,43.82
2022-11-16T04:03:49.720Z,43.98
2022-11-16T04:06:35.933Z,43.74
2022-11-16T04:09:21.804Z,44.03
2022-11-16T04:12:08.728Z,43.85
2022-11-16T04:14:54.713Z,43.90
2022-11-16T04:17:43.236Z,43.78
2022-11-16T04:20:30.609Z,43.89
2022-11-16T04:23:20.779Z,43.74
2022-11-16T04:25:49.394Z,44.03
2022-11-16T04:28:17.638Z,44.03
2022-11-16T04:31:06.154Z,43.89
2022-11-16T04:33:53.533Z,43.99
2022-11-16T04:36:39.820Z,43.78
2022-11-16T04:39:08.268Z,43.58
2022-11-16T04:41:59.521Z,43.75
2022-11-16T04:44:48.390Z,43.55
2022-11-16T04:47:15.974Z,43.78
2022-11-16T04:49:46.454Z,43.87
2022-11-16T04:52:15.019Z,43.70
2022-11-16T04:54:43.444Z,43.92
2022-11-16T04:57:11.865Z,44.05
2022-11-16T04:59:40.382Z,44.04
2022-11-16T05:02:11.802Z,44.13
2022-11-16T05:04:41.584Z,44.07
2022-11-16T05:07:12.757Z,44.34
2022-11-16T05:09:43.129Z,44.80
2022-11-16T05:12:11.943Z,44.90
2022-11-16T05:14:40.411Z,44.76
2022-11-16T05:17:08.982Z,45.72
2022-11-16T05:19:55.206Z,46.03
2022-11-16T05:22:25.220Z,46.89
2022-11-16T05:24:53.838Z,46.22
2022-11-16T05:27:23.078Z,46.36
2022-11-16T05:29:51.597Z,45.47
2022-11-16T05:32:20.884Z,45.59
2022-11-16T05:34:49.452Z,45.44
2022-11-16T05:37:18.321Z,45.01
2022-11-16T05:39:48.309Z,45.20
2022-11-16T05:42:17.094Z,44.82
2022-11-16T05:44:45.543Z,45.00
2022-11-16T05:47:14.030Z,45.04
2022-11-16T05:49:42.546Z,44.67
2022-11-16T05:52:10.996Z,45.17
2022-11-16T05:54:39.461Z,44.96
2022-11-16T05:57:09.284Z,44.60
2022-11-16T05:59:37.729Z,45.26
2022-11-16T06:02:06.210Z,45.27
2022-11-16T06:04:34.633Z,45.33
2022-11-16T06:10:08.750Z,44.97
2022-11-16T06:12:38.597Z,44.98
2022-11-16T06:15:08.168Z,45.46
2022-11-16T06:17:36.640Z,45.32
2022-11-16T06:20:06.073Z,44.85
2022-11-16T06:22:34.620Z,45.11
2022-11-16T06:25:03.228Z,45.08
2022-11-16T06:27:31.696Z,45.11
2022-11-16T06:30:02.009Z,44.76
2022-11-16T06:32:30.600Z,45.07
2022-11-16T06:34:59.511Z,45.03
2022-11-16T06:37:28.332Z,44.87
2022-11-16T06:39:57.234Z,45.21
2022-11-16T06:42:26.065Z,45.31
2022-11-16T06:44:55.141Z,45.06
2022-11-16T06:47:25.311Z,45.42
2022-11-16T06:49:54.202Z,44.67
2022-11-16T06:52:22.941Z,45.08
2022-11-16T06:54:51.999Z,44.75
2022-11-16T06:57:20.739Z,44.84
2022-11-16T06:59:49.503Z,44.73
2022-11-16T07:02:21.359Z,44.88
2022-11-16T07:04:51.502Z,44.71
2022-11-16T07:07:20.432Z,44.82
2022-11-16T07:09:49.181Z,45.19
2022-11-16T07:12:17.988Z,45.06
2022-11-16T07:14:46.738Z,44.91
2022-11-16T07:17:15.739Z,44.67
2022-11-16T07:19:44.585Z,44.95
2022-11-16T07:22:14.881Z,44.77
2022-11-16T07:24:43.586Z,44.57
2022-11-16T07:27:12.758Z,44.62
2022-11-16T07:29:41.524Z,44.41
2022-11-16T07:32:10.311Z,44.37
2022-11-16T07:34:39.477Z,44.26
2022-11-16T07:37:08.243Z,44.21
2022-11-16T07:39:38.538Z,44.32
2022-11-16T07:42:11.588Z,44.11
2022-11-16T07:44:40.453Z,44.75
2022-11-16T07:47:09.345Z,44.17
2022-11-16T07:49:38.210Z,44.71
2022-11-16T07:52:09.097Z,44.42
2022-11-16T07:54:39.280Z,44.57
2022-11-16T07:57:08.259Z,44.56
2022-11-16T07:59:38.248Z,44.44
2022-11-16T08:02:07.148Z,44.29
2022-11-16T08:04:35.956Z,44.63
2022-11-16T08:07:04.773Z,44.54
2022-11-16T08:09:34.587Z,44.45
2022-11-16T08:12:04.533Z,44.54
2022-11-16T08:14:33.156Z,45.04
2022-11-16T08:17:03.717Z,44.73
2022-11-16T08:19:32.257Z,44.86
2022-11-16T08:22:01.406Z,44.73
2022-11-16T08:24:30.064Z,45.10
2022-11-16T08:26:59.464Z,45.05
2022-11-16T08:29:29.648Z,45.34
2022-11-16T08:31:58.124Z,44.92
2022-11-16T08:34:26.662Z,44.86
2022-11-16T08:36:55.236Z,44.80
2022-11-16T08:39:23.722Z,44.95
2022-11-16T08:41:55.287Z,44.80
2022-11-16T08:44:24.520Z,44.94
2022-11-16T08:46:54.532Z,45.36
2022-11-16T08:49:23.426Z,45.12
2022-11-16T08:51:51.919Z,44.94
2022-11-16T08:54:20.517Z,45.02
2022-11-16T08:56:49.009Z,44.75
2022-11-16T08:59:17.692Z,44.92
2022-11-16T09:01:46.446Z,44.93
2022-11-16T09:04:16.551Z,44.56
2022-11-16T09:06:45.173Z,44.93
2022-11-16T09:09:13.769Z,44.81
2022-11-16T09:11:42.339Z,44.62
2022-11-16T09:14:10.879Z,44.49
2022-11-16T09:16:39.432Z,44.60
2022-11-16T09:19:08.009Z,44.68
2022-11-16T09:21:37.892Z,44.77
2022-11-16T09:24:09.154Z,44.66
2022-11-16T09:26:37.765Z,44.67
2022-11-16T09:29:06.359Z,44.85
2022-11-16T09:31:37.362Z,44.95
2022-11-16T09:34:06.454Z,44.91
2022-11-16T09:36:35.134Z,44.70
2022-11-16T09:42:01.985Z,45.21
2022-11-16T09:44:59.576Z,44.77
2022-11-16T09:47:50.185Z,44.42
2022-11-16T09:50:35.893Z,44.48
2022-11-16T09:53:20.102Z,44.30
2022-11-16T09:55:51.318Z,44.24
2022-11-16T09:58:24.443Z,44.18
2022-11-16T10:00:58.289Z,44.58
2022-11-16T10:03:27.465Z,44.79
2022-11-16T10:06:02.924Z,44.50
2022-11-16T10:08:43.204Z,44.83
2022-11-16T10:11:50.957Z,45.05
2022-11-16T10:14:49.445Z,44.70
2022-11-16T10:17:25.921Z,44.22
2022-11-16T10:19:56.072Z,44.50
2022-11-16T10:22:41.020Z,44.25
2022-11-16T10:25:16.111Z,44.16
2022-11-16T10:28:11.349Z,44.79
2022-11-16T10:30:43.596Z,44.57
2022-11-16T10:33:14.474Z,44.37
2022-11-16T10:35:46.011Z,44.42
2022-11-16T10:38:17.322Z,44.42
2022-11-16T10:40:48.784Z,44.26
2022-11-16T10:43:19.749Z,44.35
2022-11-16T10:45:51.789Z,44.53
2022-11-16T10:48:31.077Z,44.50
2022-11-16T10:50:59.608Z,44.59
2022-11-16T10:53:29.732Z,44.25
2022-11-16T10:56:12.865Z,44.14
2022-11-16T10:58:54.371Z,44.91
2022-11-16T11:01:51.088Z,44.72
2022-11-16T11:04:22.930Z,44.63
2022-11-16T11:06:53.006Z,44.68
2022-11-16T11:09:27.940Z,44.35
2022-11-16T11:12:23.255Z,44.12
2022-11-16T11:15:05.986Z,44.25
2022-11-16T11:17:35.841Z,44.36
2022-11-16T11:20:06.303Z,44.06
2022-11-16T11:22:35.038Z,44.46
2022-11-16T11:25:04.449Z,44.41
2022-11-16T11:27:35.146Z,44.22
2022-11-16T11:30:06.014Z,44.73
2022-11-16T11:32:35.851Z,44.65
2022-11-16T11:35:06.576Z,44.63
2022-11-16T11:37:37.194Z,44.57
2022-11-16T11:40:22.575Z,44.39
2022-11-16T11:43:05.289Z,44.40
2022-11-16T11:45:43.385Z,44.17
2022-11-16T11:48:26.308Z,44.17
2022-11-16T11:50:56.578Z,44.22
2022-11-16T11:53:49.542Z,44.31
2022-11-16T11:56:18.312Z,44.09
2022-11-16T11:58:47.207Z,44.02
2022-11-16T12:01:51.911Z,43.96
2022-11-16T12:05:12.803Z,44.36
2022-11-16T12:07:54.935Z,43.82
2022-11-16T12:10:29.752Z,43.93
2022-11-16T12:13:09.724Z,43.94
2022-11-16T12:15:51.540Z,43.81
2022-11-16T12:18:37.264Z,44.34
2022-11-16T12:21:11.133Z,44.26
2022-11-16T12:24:04.716Z,44.75
2022-11-16T12:26:41.291Z,43.89
2022-11-16T12:29:26.883Z,44.05
2022-11-16T12:32:32.273Z,44.19
2022-11-16T12:35:26.783Z,44.20
2022-11-16T12:38:00.558Z,44.10
2022-11-16T12:40:37.343Z,44.15
2022-11-16T12:43:13.299Z,44.38
2022-11-16T12:46:11.428Z,43.99
2022-11-16T12:49:15.647Z,44.29
2022-11-16T12:51:56.836Z,44.23
2022-11-16T12:55:03.995Z,44.14
2022-11-16T12:57:37.320Z,44.06
2022-11-16T13:00:08.732Z,44.00
2022-11-16T13:03:13.351Z,43.98
2022-11-16T13:05:50.228Z,43.85
2022-11-16T13:08:39.662Z,43.71
2022-11-16T13:11:13.123Z,43.74
2022-11-16T13:13:41.950Z,43.92
2022-11-16T13:16:10.934Z,43.51
2022-11-16T13:18:42.735Z,43.70
2022-11-16T13:21:20.017Z,43.49
2022-11-16T13:23:57.208Z,43.45
2022-11-16T13:26:30.205Z,43.60
2022-11-16T13:29:02.402Z,43.79
2022-11-16T13:31:34.630Z,43.48
2022-11-16T13:34:07.045Z,43.68
2022-11-16T13:36:46.412Z,43.54
2022-11-16T13:39:22.359Z,43.43
2022-11-16T13:41:52.122Z,43.54
2022-11-16T13:44:29.981Z,43.47
2022-11-16T13:47:04.452Z,43.61
2022-11-16T13:49:38.743Z,43.53
2022-11-16T13:52:22.739Z,43.43
2022-11-16T13:54:55.648Z,43.36
2022-11-16T13:57:28.183Z,43.42
2022-11-16T14:00:10.186Z,43.17
2022-11-16T14:02:39.515Z,43.26
2022-11-16T14:05:15.997Z,43.31
2022-11-16T14:07:47.191Z,43.51
2022-11-16T14:11:01.099Z,43.74
2022-11-16T14:13:39.817Z,43.55
2022-11-16T14:16:47.718Z,43.78
2022-11-16T14:19:57.029Z,43.38
2022-11-16T14:22:56.620Z,43.54
2022-11-16T14:25:34.804Z,43.15
2022-11-16T14:28:32.431Z,43.39
2022-11-16T14:31:09.057Z,43.26
2022-11-16T14:33:38.294Z,43.45
2022-11-16T14:36:09.309Z,43.18
2022-11-16T14:38:39.319Z,43.20
2022-11-16T14:41:12.512Z,43.72
2022-11-16T14:43:44.701Z,43.54
2022-11-16T14:46:23.348Z,43.34
2022-11-16T14:48:51.807Z,43.41
2022-11-16T14:51:22.656Z,43.46
2022-11-16T14:53:53.609Z,43.67
2022-11-16T14:56:24.614Z,43.24
2022-11-16T14:58:55.462Z,43.40
2022-11-16T15:01:26.087Z,43.05
2022-11-16T15:04:02.357Z,43.25
2022-11-16T15:06:32.268Z,43.29
2022-11-16T15:09:03.217Z,43.23
2022-11-16T15:11:47.299Z,43.13
2022-11-16T15:14:22.615Z,42.96
2022-11-16T15:16:54.650Z,43.12
2022-11-16T15:19:23.314Z,43.32
2022-11-16T15:21:54.023Z,43.79
2022-11-16T15:24:31.506Z,43.63
2022-11-16T15:27:23.327Z,43.42
2022-11-16T15:29:53.247Z,43.55
2022-11-16T15:32:21.831Z,43.70
2022-11-16T15:34:54.348Z,43.56
2022-11-16T15:37:29.652Z,43.67
2022-11-16T15:39:59.375Z,43.46
2022-11-16T15:42:28.178Z,43.92
2022-11-16T15:45:12.873Z,43.64
2022-11-16T15:47:44.146Z,43.72
2022-11-16T15:50:17.036Z,43.82
2022-11-16T15:52:46.549Z,43.82
2022-11-16T15:55:27.878Z,44.00
2022-11-16T15:58:12.525Z,43.83
2022-11-16T16:00:43.099Z,44.04
2022-11-16T16:03:23.057Z,43.61
2022-11-16T16:05:51.954Z,43.88
2022-11-16T16:08:30.281Z,43.58
2022-11-16T16:11:12.238Z,43.41
2022-11-16T16:13:42.642Z,43.55
2022-11-16T16:16:31.521Z,44.19
2022-11-16T16:19:06.463Z,44.66
2022-11-16T16:21:45.231Z,44.66
2022-11-16T16:24:42.919Z,45.10
2022-11-16T16:27:17.330Z,44.44
2022-11-16T16:29:46.269Z,44.40
2022-11-16T16:32:34.489Z,44.63
2022-11-16T16:35:06.504Z,44.54
2022-11-16T16:37:36.084Z,44.79
2022-11-16T16:40:07.968Z,44.79
2022-11-16T16:42:36.488Z,44.75
2022-11-16T16:45:05.688Z,45.07
2022-11-16T16:47:34.214Z,45.39
2022-11-16T16:50:02.699Z,44.96
2022-11-16T16:52:31.177Z,44.63
2022-11-16T16:54:59.693Z,44.79
2022-11-16T16:57:29.928Z,44.75
2022-11-16T16:59:58.471Z,44.70
2022-11-16T17:02:27.691Z,44.76
2022-11-16T17:04:56.244Z,44.69
2022-11-16T17:07:25.207Z,44.70
2022-11-16T17:09:54.319Z,45.00
2022-11-16T17:12:22.801Z,45.06
2022-11-16T17:14:52.589Z,44.76
2022-11-16T17:17:21.411Z,44.88
2022-11-16T17:19:49.924Z,44.62
2022-11-16T17:22:18.477Z,44.61
2022-11-16T17:24:47.152Z,44.86
2022-11-16T17:27:15.656Z,44.93
2022-11-16T17:29:44.277Z,44.49
2022-11-16T17:32:14.256Z,44.52
2022-11-16T17:34:42.941Z,44.63
2022-11-16T17:37:11.513Z,44.45
2022-11-16T17:39:40.184Z,44.22
2022-11-16T17:42:08.612Z,44.23
2022-11-16T17:44:37.213Z,44.36
2022-11-16T17:47:06.645Z,44.44
2022-11-16T17:49:36.675Z,44.30
2022-11-16T17:52:06.270Z,44.69
2022-11-16T17:54:34.748Z,44.42
2022-11-16T17:57:03.224Z,44.31
2022-11-16T17:59:31.785Z,44.40
2022-11-16T18:02:00.202Z,44.04
2022-11-16T18:04:28.659Z,43.99
2022-11-16T18:06:59.800Z,43.81
2022-11-16T18:09:28.309Z,43.77
2022-11-16T18:11:56.738Z,43.83
2022-11-16T18:14:28.126Z,43.88
2022-11-16T18:16:56.867Z,44.29
2022-11-16T18:19:25.410Z,43.85
2022-11-16T18:21:54.068Z,43.91
2022-11-16T18:24:24.089Z,43.66
2022-11-16T18:26:54.481Z,43.83
2022-11-16T18:29:23.050Z,44.83
2022-11-16T18:31:51.634Z,44.65
2022-11-16T18:34:20.436Z,44.00
2022-11-16T18:36:50.995Z,44.30
2022-11-16T18:39:19.525Z,44.53
2022-11-16T18:41:55.069Z,44.31
2022-11-16T18:44:24.036Z,44.09
2022-11-16T18:46:52.597Z,44.42
2022-11-16T18:49:21.140Z,44.83
2022-11-16T18:51:49.645Z,44.30
2022-11-16T18:54:18.224Z,44.26
2022-11-16T18:56:46.917Z,44.40
2022-11-16T18:59:16.829Z,44.42
2022-11-16T19:01:47.464Z,44.49
2022-11-16T19:04:16.374Z,44.14
2022-11-16T19:06:45.060Z,44.50
2022-11-16T19:09:13.711Z,43.75
2022-11-16T19:11:42.342Z,43.62
2022-11-16T19:14:10.976Z,44.04
2022-11-16T19:16:48.978Z,43.85
2022-11-16T19:19:19.831Z,43.94
2022-11-16T19:21:48.350Z,43.56
2022-11-16T19:24:16.821Z,43.86
2022-11-16T19:26:45.375Z,43.98
2022-11-16T19:29:13.857Z,43.82
2022-11-16T19:31:43.844Z,44.13
2022-11-16T19:34:13.145Z,44.26
2022-11-16T19:36:41.849Z,44.04
2022-11-16T19:39:10.562Z,43.61
2022-11-16T19:41:39.207Z,43.60
2022-11-16T19:44:07.682Z,43.33
2022-11-16T19:46:36.658Z,43.44
2022-11-16T19:49:08.736Z,43.51
2022-11-16T19:51:37.755Z,43.28
2022-11-16T19:54:06.919Z,43.32
2022-11-16T19:56:35.608Z,43.46
2022-11-16T19:59:04.252Z,43.07
2022-11-16T20:01:32.850Z,43.26
2022-11-16T20:04:03.517Z,43.13
2022-11-16T20:06:34.347Z,43.10
2022-11-16T20:09:08.743Z,43.13
2022-11-16T20:11:38.786Z,43.25
2022-11-16T20:14:08.713Z,42.90
2022-11-16T20:16:39.517Z,43.14
2022-11-16T20:19:08.337Z,42.82
2022-11-16T20:21:39.530Z,42.81
2022-11-16T20:24:09.736Z,43.00
2022-11-16T20:26:41.431Z,42.63
2022-11-16T20:29:12.089Z,42.61
2022-11-16T20:31:42.990Z,42.95
2022-11-16T20:34:14.050Z,42.80
2022-11-16T20:36:46.342Z,43.00
2022-11-16T20:39:15.763Z,42.89
2022-11-16T20:41:44.929Z,42.79
2022-11-16T20:44:17.917Z,42.55
2022-11-16T20:46:46.418Z,42.59
2022-11-16T20:49:14.985Z,42.63
2022-11-16T20:51:46.897Z,42.56
2022-11-16T20:54:15.465Z,42.78
2022-11-16T20:56:44.541Z,42.77
2022-11-16T20:59:13.129Z,42.53
2022-11-16T21:01:47.516Z,42.52
2022-11-16T21:04:16.749Z,42.42
2022-11-16T21:06:46.809Z,42.38
2022-11-16T21:09:22.459Z,42.66
2022-11-16T21:12:08.664Z,42.26
2022-11-16T21:14:37.134Z,42.37
2022-11-16T21:17:06.345Z,42.53
2022-11-16T21:19:35.154Z,42.29
2022-11-16T21:22:05.000Z,42.13
2022-11-16T21:24:34.917Z,42.22
2022-11-16T21:27:03.340Z,42.41
2022-11-16T21:29:31.995Z,42.42
2022-11-16T21:32:00.561Z,42.12
2022-11-16T21:34:34.607Z,42.34
2022-11-16T21:37:07.117Z,42.80
2022-11-16T21:39:35.735Z,42.55
2022-11-16T21:42:04.369Z,42.14
2022-11-16T21:44:42.107Z,42.30
2022-11-16T21:47:10.695Z,42.07
2022-11-16T21:50:00.818Z,42.43
2022-11-16T21:52:29.983Z,41.92
2022-11-16T21:55:01.585Z,42.53
2022-11-16T21:57:31.755Z,42.28
2022-11-16T22:00:01.104Z,42.12
2022-11-16T22:02:29.719Z,42.05
2022-11-16T22:05:16.038Z,42.86
2022-11-16T22:07:45.885Z,42.70
2022-11-16T22:10:14.660Z,42.43
2022-11-16T22:12:43.225Z,42.59
2022-11-16T22:15:12.351Z,42.15
2022-11-16T22:17:44.111Z,41.85
2022-11-16T22:20:13.147Z,42.22
2022-11-16T22:22:41.705Z,42.02
2022-11-16T22:25:13.925Z,41.95
2022-11-16T22:28:13.498Z,41.82
2022-11-16T22:30:31.911Z,42.01
2022-11-16T22:33:00.419Z,42.06
2022-11-16T22:35:29.013Z,42.05
2022-11-16T22:37:59.449Z,41.87
2022-11-16T22:40:29.381Z,42.11
2022-11-16T22:42:58.660Z,42.74
2022-11-16T22:45:27.403Z,42.04
2022-11-16T22:47:56.757Z,41.71
2022-11-16T22:50:25.266Z,41.60
2022-11-16T22:52:53.753Z,41.38
2022-11-16T22:55:22.243Z,41.77
2022-11-16T22:57:52.182Z,41.58
2022-11-16T23:00:21.349Z,41.49
2022-11-16T23:02:49.999Z,41.38
2022-11-16T23:05:18.566Z,41.30
2022-11-16T23:07:48.350Z,41.69
2022-11-16T23:10:16.911Z,41.81
2022-11-16T23:13:02.732Z,41.92
2022-11-16T23:15:50.851Z,41.52
2022-11-16T23:18:19.907Z,41.71
2022-11-16T23:21:05.907Z,41.71
2022-11-16T23:23:54.449Z,41.47
2022-11-16T23:26:41.886Z,42.30
2022-11-16T23:29:11.153Z,41.96
2022-11-16T23:31:40.953Z,41.45
2022-11-16T23:34:09.542Z,41.96
2022-11-16T23:36:37.983Z,41.31
2022-11-16T23:39:06.737Z,41.70
2022-11-16T23:41:52.905Z,41.19
2022-11-16T23:44:22.310Z,41.25
2022-11-16T23:46:52.126Z,41.45
2022-11-16T23:49:20.660Z,41.27
2022-11-16T23:51:49.149Z,41.13
2022-11-16T23:54:17.633Z,41.23
2022-11-16T23:56:46.209Z,41.13
2022-11-16T23:59:14.767Z,41.08
